createdAt,value
2022-10-01T00:01:17.653Z,17.69
2022-10-01T00:03:45.191Z,17.99
2022-10-01T00:06:16.650Z,18.08
2022-10-01T00:08:48.996Z,18.27
2022-10-01T00:11:21.410Z,18.37
2022-10-01T00:13:49.077Z,18.44
2022-10-01T00:16:27.805Z,18.59
2022-10-01T00:18:55.342Z,18.51
2022-10-01T00:21:25.246Z,18.41
2022-10-01T00:23:56.911Z,18.37
2022-10-01T00:26:27.163Z,18.31
2022-10-01T00:28:57.655Z,18.37
2022-10-01T00:31:25.326Z,18.16
2022-10-01T00:33:53.904Z,17.80
2022-10-01T00:36:21.867Z,17.21
2022-10-01T00:38:48.999Z,16.96
2022-10-01T00:41:17.768Z,16.77
2022-10-01T00:43:49.829Z,16.74
2022-10-01T00:46:43.348Z,16.76
2022-10-01T00:49:24.252Z,16.83
2022-10-01T00:51:56.492Z,16.82
2022-10-01T00:54:31.043Z,16.73
2022-10-01T00:56:59.812Z,16.96
2022-10-01T00:59:28.447Z,17.04
2022-10-01T01:01:55.475Z,17.15
2022-10-01T01:04:22.946Z,17.12
2022-10-01T01:06:55.832Z,17.26
2022-10-01T01:09:30.652Z,17.52
2022-10-01T01:12:09.321Z,17.72
2022-10-01T01:14:42.151Z,17.82
2022-10-01T01:17:14.636Z,17.94
2022-10-01T01:19:50.654Z,17.82
2022-10-01T01:22:21.550Z,17.84
2022-10-01T01:25:13.225Z,17.96
2022-10-01T01:27:53.624Z,17.94
2022-10-01T01:30:20.833Z,17.93
2022-10-01T01:33:06.057Z,18.06
2022-10-01T01:35:44.111Z,17.79
2022-10-01T01:38:15.541Z,17.63
2022-10-01T01:40:46.785Z,17.44
2022-10-01T01:43:20.566Z,17.14
2022-10-01T01:45:52.346Z,16.82
2022-10-01T01:48:19.235Z,16.52
2022-10-01T01:51:02.816Z,16.34
2022-10-01T01:53:31.878Z,16.26
2022-10-01T01:56:00.489Z,16.28
2022-10-01T01:58:28.286Z,16.29
2022-10-01T02:00:55.230Z,16.19
2022-10-01T02:03:29.208Z,16.44
2022-10-01T02:06:27.212Z,16.65
2022-10-01T02:09:11.463Z,16.82
2022-10-01T02:11:57.312Z,16.92
2022-10-01T02:14:36.809Z,16.98
2022-10-01T02:17:08.549Z,17.02
2022-10-01T02:19:44.122Z,16.85
2022-10-01T02:22:26.812Z,16.75
2022-10-01T02:24:57.689Z,16.64
2022-10-01T02:27:31.341Z,16.75
2022-10-01T02:30:03.051Z,16.71
2022-10-01T02:32:32.081Z,16.32
2022-10-01T02:35:00.384Z,16.03
2022-10-01T02:37:28.344Z,16.02
2022-10-01T02:39:57.333Z,15.97
2022-10-01T02:42:28.591Z,16.10
2022-10-01T02:44:56.957Z,16.17
2022-10-01T02:47:50.938Z,16.21
2022-10-01T02:50:17.879Z,16.21
2022-10-01T02:53:05.594Z,16.30
2022-10-01T02:55:41.353Z,16.28
2022-10-01T02:58:08.867Z,16.20
2022-10-01T03:00:36.169Z,16.28
2022-10-01T03:03:03.117Z,16.53
2022-10-01T03:05:30.085Z,16.66
2022-10-01T03:07:57.097Z,16.67
2022-10-01T03:10:24.004Z,16.30
2022-10-01T03:12:51.074Z,16.11
2022-10-01T03:15:19.358Z,16.00
2022-10-01T03:17:51.235Z,15.90
2022-10-01T03:20:18.283Z,16.06
2022-10-01T03:22:46.803Z,16.15
2022-10-01T03:25:15.267Z,16.12
2022-10-01T03:27:42.408Z,16.11
2022-10-01T03:30:10.901Z,16.19
2022-10-01T03:32:37.803Z,16.22
2022-10-01T03:35:04.946Z,16.63
2022-10-01T03:37:31.843Z,16.78
2022-10-01T03:39:58.703Z,16.95
2022-10-01T03:42:25.538Z,17.01
2022-10-01T03:44:53.012Z,17.10
2022-10-01T03:47:19.932Z,16.71
2022-10-01T03:49:46.796Z,16.46
2022-10-01T03:52:13.620Z,16.02
2022-10-01T03:54:40.462Z,15.84
2022-10-01T03:57:07.358Z,15.69
2022-10-01T03:59:34.212Z,15.70
2022-10-01T04:02:01.188Z,15.53
2022-10-01T04:04:29.036Z,15.41
2022-10-01T04:06:56.124Z,15.27
2022-10-01T04:09:22.965Z,15.30
2022-10-01T04:11:49.850Z,15.35
2022-10-01T04:14:16.694Z,15.30
2022-10-01T04:16:44.166Z,15.35
2022-10-01T04:19:11.207Z,15.35
2022-10-01T04:21:39.120Z,15.35
2022-10-01T04:24:06.300Z,15.48
2022-10-01T04:26:33.291Z,15.49
2022-10-01T04:29:00.216Z,15.38
2022-10-01T04:31:27.604Z,15.36
2022-10-01T04:33:56.329Z,15.34
2022-10-01T04:36:24.420Z,15.25
2022-10-01T04:39:00.767Z,15.51
2022-10-01T04:41:30.981Z,15.48
2022-10-01T04:44:01.440Z,15.82
2022-10-01T04:46:30.321Z,15.79
2022-10-01T04:48:57.617Z,16.26
2022-10-01T04:51:24.659Z,16.64
2022-10-01T04:53:51.518Z,16.94
2022-10-01T04:56:18.372Z,17.26
2022-10-01T04:58:45.245Z,17.47
2022-10-01T05:01:12.147Z,17.68
2022-10-01T05:03:39.044Z,17.87
2022-10-01T05:06:06.198Z,18.06
2022-10-01T05:08:33.152Z,18.21
2022-10-01T05:11:05.893Z,18.23
2022-10-01T05:13:38.701Z,18.31
2022-10-01T05:16:05.830Z,18.39
2022-10-01T05:18:34.478Z,18.48
2022-10-01T05:21:08.508Z,18.57
2022-10-01T05:23:35.520Z,18.47
2022-10-01T05:26:05.848Z,18.42
2022-10-01T05:28:33.371Z,18.45
2022-10-01T05:33:46.003Z,18.36
2022-10-01T05:36:13.842Z,18.06
2022-10-01T05:38:42.327Z,17.71
2022-10-01T05:41:09.683Z,17.61
2022-10-01T05:43:36.641Z,17.52
2022-10-01T05:46:06.032Z,17.60
2022-10-01T05:48:34.655Z,17.41
2022-10-01T05:51:03.169Z,17.46
2022-10-01T05:53:30.125Z,17.38
2022-10-01T05:56:02.925Z,17.56
2022-10-01T05:58:31.391Z,17.70
2022-10-01T06:00:58.686Z,18.02
2022-10-01T06:03:28.709Z,18.08
2022-10-01T06:05:56.136Z,18.40
2022-10-01T06:08:23.271Z,18.45
2022-10-01T06:10:50.278Z,18.44
2022-10-01T06:13:19.659Z,18.61
2022-10-01T06:15:49.237Z,18.50
2022-10-01T06:18:16.257Z,18.69
2022-10-01T06:20:43.213Z,18.75
2022-10-01T06:23:12.615Z,19.02
2022-10-01T06:25:41.919Z,19.32
2022-10-01T06:28:11.654Z,19.70
2022-10-01T06:30:40.146Z,19.90
2022-10-01T06:33:09.613Z,20.04
2022-10-01T06:35:41.675Z,20.35
2022-10-01T06:38:09.560Z,20.54
2022-10-01T06:40:37.622Z,20.74
2022-10-01T06:43:07.927Z,21.01
2022-10-01T06:45:40.744Z,21.11
2022-10-01T06:48:08.204Z,20.92
2022-10-01T06:50:35.603Z,20.74
2022-10-01T06:53:04.200Z,20.77
2022-10-01T06:55:33.593Z,20.97
2022-10-01T06:58:01.493Z,21.12
2022-10-01T07:00:31.071Z,20.91
2022-10-01T07:02:58.571Z,21.39
2022-10-01T07:05:25.593Z,21.68
2022-10-01T07:11:12.065Z,21.83
2022-10-01T07:13:41.205Z,21.93
2022-10-01T07:16:08.786Z,22.17
2022-10-01T07:18:36.003Z,22.40
2022-10-01T07:21:02.969Z,22.58
2022-10-01T07:23:30.040Z,22.83
2022-10-01T07:25:59.511Z,23.02
2022-10-01T07:28:28.195Z,23.16
2022-10-01T07:31:11.291Z,23.04
2022-10-01T07:33:41.870Z,22.99
2022-10-01T07:36:13.812Z,23.01
2022-10-01T07:38:43.894Z,23.18
2022-10-01T07:41:10.998Z,23.33
2022-10-01T07:43:39.452Z,23.40
2022-10-01T07:46:07.267Z,23.64
2022-10-01T07:48:34.260Z,23.76
2022-10-01T07:51:01.629Z,23.62
2022-10-01T07:53:28.579Z,23.77
2022-10-01T07:55:55.516Z,23.81
2022-10-01T07:58:26.106Z,23.76
2022-10-01T08:00:58.405Z,23.75
2022-10-01T08:03:25.775Z,23.63
2022-10-01T08:05:54.273Z,23.82
2022-10-01T08:08:21.525Z,24.05
2022-10-01T08:10:50.961Z,24.28
2022-10-01T08:13:18.297Z,24.51
2022-10-01T08:15:47.558Z,24.63
2022-10-01T08:18:14.685Z,24.69
2022-10-01T08:20:41.696Z,24.68
2022-10-01T08:23:11.425Z,24.90
2022-10-01T08:25:39.005Z,24.88
2022-10-01T08:28:07.333Z,24.92
2022-10-01T08:30:35.903Z,24.79
2022-10-01T08:33:04.067Z,24.96
2022-10-01T08:35:31.001Z,25.20
2022-10-01T08:38:02.372Z,25.23
2022-10-01T08:40:30.780Z,25.38
2022-10-01T08:43:02.635Z,25.42
2022-10-01T08:45:38.589Z,25.54
2022-10-01T08:48:12.972Z,25.50
2022-10-01T08:50:57.629Z,25.67
2022-10-01T08:53:57.610Z,25.87
2022-10-01T08:56:30.951Z,26.08
2022-10-01T08:59:02.705Z,26.07
2022-10-01T09:01:31.094Z,26.20
2022-10-01T09:03:59.529Z,26.20
2022-10-01T09:06:27.884Z,26.08
2022-10-01T09:09:25.978Z,26.01
2022-10-01T09:12:46.950Z,26.32
2022-10-01T09:15:42.604Z,26.50
2022-10-01T09:18:31.103Z,26.37
2022-10-01T09:20:59.114Z,26.39
2022-10-01T09:23:39.965Z,26.32
2022-10-01T09:26:12.366Z,26.52
2022-10-01T09:28:41.409Z,26.52
2022-10-01T09:31:20.343Z,26.46
2022-10-01T09:34:02.692Z,26.36
2022-10-01T09:37:06.423Z,26.51
2022-10-01T09:39:57.043Z,26.59
2022-10-01T09:42:28.005Z,26.79
2022-10-01T09:44:56.435Z,26.92
2022-10-01T09:47:25.785Z,27.08
2022-10-01T09:49:52.782Z,27.11
2022-10-01T09:52:26.617Z,27.34
2022-10-01T09:55:05.343Z,27.35
2022-10-01T09:57:39.129Z,27.37
2022-10-01T10:00:18.446Z,27.19
2022-10-01T10:02:49.539Z,27.27
2022-10-01T10:05:22.784Z,27.19
2022-10-01T10:07:54.052Z,27.22
2022-10-01T10:10:29.053Z,27.15
2022-10-01T10:13:04.892Z,27.25
2022-10-01T10:15:33.285Z,27.25
2022-10-01T10:18:12.581Z,27.22
2022-10-01T10:20:43.558Z,27.20
2022-10-01T10:23:22.017Z,27.13
2022-10-01T10:25:56.046Z,27.09
2022-10-01T10:28:24.371Z,26.98
2022-10-01T10:30:54.698Z,27.11
2022-10-01T10:33:24.731Z,27.13
2022-10-01T10:36:04.265Z,27.16
2022-10-01T10:38:33.777Z,27.11
2022-10-01T10:41:02.064Z,27.28
2022-10-01T10:43:36.702Z,27.23
2022-10-01T10:46:04.260Z,27.06
2022-10-01T10:48:39.320Z,27.40
2022-10-01T10:51:06.519Z,27.44
2022-10-01T10:53:45.639Z,27.46
2022-10-01T10:56:22.744Z,27.27
2022-10-01T10:58:53.767Z,27.29
2022-10-01T11:01:29.791Z,27.30
2022-10-01T11:04:00.721Z,27.30
2022-10-01T11:06:30.385Z,27.41
2022-10-01T11:09:04.859Z,27.39
2022-10-01T11:11:42.692Z,27.61
2022-10-01T11:14:56.453Z,27.50
2022-10-01T11:17:26.338Z,27.54
2022-10-01T11:20:16.357Z,27.53
2022-10-01T11:22:55.824Z,27.55
2022-10-01T11:25:41.923Z,27.47
2022-10-01T11:28:44.933Z,27.51
2022-10-01T11:31:17.933Z,27.43
2022-10-01T11:34:23.210Z,27.33
2022-10-01T11:37:02.425Z,27.11
2022-10-01T11:39:32.164Z,26.88
2022-10-01T11:42:22.401Z,26.82
2022-10-01T11:45:00.670Z,26.67
2022-10-01T11:47:36.712Z,26.63
2022-10-01T11:50:16.001Z,26.42
2022-10-01T11:53:01.156Z,26.32
2022-10-01T11:56:13.499Z,26.07
2022-10-01T11:58:53.057Z,25.94
2022-10-01T12:01:42.215Z,25.80
2022-10-01T12:04:16.626Z,25.82
2022-10-01T12:07:00.321Z,25.68
2022-10-01T12:09:38.501Z,25.65
2022-10-01T12:12:10.955Z,25.60
2022-10-01T12:14:46.154Z,25.52
2022-10-01T12:17:13.206Z,25.56
2022-10-01T12:19:46.180Z,25.67
2022-10-01T12:22:20.272Z,25.80
2022-10-01T12:24:50.758Z,25.92
2022-10-01T12:27:48.633Z,25.83
2022-10-01T12:30:22.371Z,25.86
2022-10-01T12:33:04.866Z,25.78
2022-10-01T12:35:53.600Z,25.78
2022-10-01T12:38:29.879Z,25.60
2022-10-01T12:41:14.759Z,25.58
2022-10-01T12:44:18.465Z,25.52
2022-10-01T12:47:33.344Z,25.57
2022-10-01T12:50:12.695Z,25.46
2022-10-01T12:52:39.947Z,25.49
2022-10-01T12:55:13.284Z,25.21
2022-10-01T12:58:03.711Z,24.83
2022-10-01T13:01:00.726Z,24.66
2022-10-01T13:03:57.047Z,24.81
2022-10-01T13:06:40.013Z,25.02
2022-10-01T13:09:06.888Z,25.20
2022-10-01T13:11:42.930Z,25.28
2022-10-01T13:14:17.479Z,25.26
2022-10-01T13:17:07.832Z,25.01
2022-10-01T13:19:59.059Z,24.84
2022-10-01T13:22:43.260Z,24.60
2022-10-01T13:25:29.253Z,24.60
2022-10-01T13:28:03.982Z,24.70
2022-10-01T13:31:09.779Z,24.75
2022-10-01T13:33:37.350Z,24.53
2022-10-01T13:36:06.885Z,24.43
2022-10-01T13:38:47.703Z,24.69
2022-10-01T13:41:22.236Z,24.58
2022-10-01T13:44:11.567Z,24.34
2022-10-01T13:46:52.589Z,24.14
2022-10-01T13:49:33.408Z,24.25
2022-10-01T13:52:03.058Z,24.31
2022-10-01T13:54:45.067Z,24.57
2022-10-01T13:57:37.953Z,24.70
2022-10-01T14:00:17.164Z,24.68
2022-10-01T14:02:57.527Z,24.56
2022-10-01T14:05:39.907Z,24.67
2022-10-01T14:08:16.994Z,24.66
2022-10-01T14:11:15.077Z,24.46
2022-10-01T14:14:06.616Z,24.39
2022-10-01T14:16:43.817Z,24.50
2022-10-01T14:19:19.730Z,24.40
2022-10-01T14:22:04.682Z,24.81
2022-10-01T14:25:22.315Z,24.92
2022-10-01T14:28:19.952Z,24.83
2022-10-01T14:31:11.465Z,24.65
2022-10-01T14:33:47.406Z,24.68
2022-10-01T14:36:19.997Z,24.63
2022-10-01T14:38:46.928Z,24.79
2022-10-01T14:41:23.331Z,24.79
2022-10-01T14:43:50.349Z,24.93
2022-10-01T14:46:19.501Z,24.88
2022-10-01T14:48:57.396Z,24.86
2022-10-01T14:51:30.142Z,24.94
2022-10-01T14:53:59.923Z,24.92
2022-10-01T14:56:28.708Z,24.94
2022-10-01T14:59:03.334Z,24.78
2022-10-01T15:01:30.782Z,24.84
2022-10-01T15:03:57.964Z,24.72
2022-10-01T15:06:41.579Z,24.64
2022-10-01T15:09:15.412Z,24.71
2022-10-01T15:11:44.717Z,24.76
2022-10-01T15:14:18.171Z,24.81
2022-10-01T15:16:45.891Z,24.52
2022-10-01T15:19:17.164Z,24.08
2022-10-01T15:21:56.462Z,23.90
2022-10-01T15:24:40.520Z,23.97
2022-10-01T15:27:10.859Z,24.07
2022-10-01T15:29:43.253Z,24.16
2022-10-01T15:32:15.061Z,24.12
2022-10-01T15:34:49.316Z,24.25
2022-10-01T15:37:34.438Z,24.19
2022-10-01T15:40:02.770Z,24.20
2022-10-01T15:42:35.266Z,24.17
2022-10-01T15:45:08.233Z,23.78
2022-10-01T15:48:01.709Z,23.45
2022-10-01T15:50:28.564Z,23.47
2022-10-01T15:53:18.205Z,23.64
2022-10-01T15:55:54.348Z,23.74
2022-10-01T15:58:35.196Z,23.78
2022-10-01T16:01:02.160Z,23.77
2022-10-01T16:03:40.005Z,23.35
2022-10-01T16:06:18.480Z,23.29
2022-10-01T16:08:51.539Z,23.37
2022-10-01T16:11:24.161Z,23.36
2022-10-01T16:13:52.758Z,23.29
2022-10-01T16:16:30.976Z,23.29
2022-10-01T16:19:23.117Z,23.21
2022-10-01T16:22:20.299Z,23.14
2022-10-01T16:25:07.735Z,23.22
2022-10-01T16:27:45.905Z,23.07
2022-10-01T16:30:23.900Z,23.01
2022-10-01T16:32:55.116Z,22.91
2022-10-01T16:35:24.464Z,22.91
2022-10-01T16:37:57.982Z,22.84
2022-10-01T16:40:27.130Z,22.71
2022-10-01T16:42:54.482Z,22.63
2022-10-01T16:45:25.737Z,22.58
2022-10-01T16:47:53.773Z,22.56
2022-10-01T16:50:21.809Z,22.40
2022-10-01T16:52:52.853Z,22.32
2022-10-01T16:55:25.476Z,22.04
2022-10-01T16:57:54.677Z,21.77
2022-10-01T17:00:24.306Z,21.84
2022-10-01T17:02:51.867Z,21.99
2022-10-01T17:05:22.279Z,21.90
2022-10-01T17:07:50.522Z,21.95
2022-10-01T17:10:19.349Z,22.12
2022-10-01T17:12:49.650Z,22.30
2022-10-01T17:15:26.498Z,22.38
2022-10-01T17:17:59.902Z,22.37
2022-10-01T17:20:29.274Z,22.42
2022-10-01T17:22:58.090Z,22.38
2022-10-01T17:25:32.177Z,22.26
2022-10-01T17:27:59.780Z,22.25
2022-10-01T17:30:29.217Z,21.64
2022-10-01T17:32:58.820Z,21.31
2022-10-01T17:35:27.243Z,21.69
2022-10-01T17:37:54.193Z,21.88
2022-10-01T17:40:21.098Z,21.93
2022-10-01T17:42:48.083Z,21.83
2022-10-01T17:45:15.497Z,21.90
2022-10-01T17:47:44.910Z,21.86
2022-10-01T17:50:12.260Z,21.67
2022-10-01T17:52:39.271Z,21.67
2022-10-01T17:55:06.888Z,21.60
2022-10-01T17:57:35.196Z,21.51
2022-10-01T18:00:04.421Z,21.44
2022-10-01T18:02:43.327Z,21.37
2022-10-01T18:05:14.476Z,21.36
2022-10-01T18:07:43.564Z,21.41
2022-10-01T18:10:12.584Z,21.39
2022-10-01T18:12:40.279Z,21.35
2022-10-01T18:15:07.713Z,21.28
2022-10-01T18:20:23.514Z,21.07
2022-10-01T18:22:50.907Z,21.07
2022-10-01T18:25:19.437Z,21.10
2022-10-01T18:27:50.224Z,21.12
2022-10-01T18:30:18.267Z,21.14
2022-10-01T18:32:50.837Z,21.07
2022-10-01T18:35:35.136Z,20.73
2022-10-01T18:38:36.406Z,20.65
2022-10-01T18:41:10.074Z,20.36
2022-10-01T18:43:38.739Z,19.96
2022-10-01T18:46:17.432Z,19.98
2022-10-01T18:49:22.138Z,19.81
2022-10-01T18:51:57.098Z,19.86
2022-10-01T18:54:39.372Z,19.89
2022-10-01T18:57:33.844Z,19.72
2022-10-01T19:00:08.668Z,19.96
2022-10-01T19:02:53.869Z,19.90
2022-10-01T19:05:42.594Z,19.90
2022-10-01T19:08:32.934Z,20.05
2022-10-01T19:11:24.593Z,20.08
2022-10-01T19:13:52.455Z,20.11
2022-10-01T19:16:25.203Z,20.31
2022-10-01T19:19:18.311Z,20.39
2022-10-01T19:21:54.158Z,20.53
2022-10-01T19:24:54.398Z,20.70
2022-10-01T19:27:46.748Z,20.63
2022-10-01T19:30:16.554Z,20.37
2022-10-01T19:32:56.556Z,20.55
2022-10-01T19:35:29.724Z,20.46
2022-10-01T19:38:21.562Z,20.64
2022-10-01T19:40:55.955Z,20.72
2022-10-01T19:43:44.431Z,20.69
2022-10-01T19:46:29.766Z,20.45
2022-10-01T19:49:12.703Z,20.39
2022-10-01T19:51:44.329Z,20.37
2022-10-01T19:54:17.625Z,20.42
2022-10-01T19:56:53.859Z,20.22
2022-10-01T19:59:41.327Z,20.28
2022-10-01T20:05:29.432Z,20.36
2022-10-01T20:08:01.303Z,20.35
2022-10-01T20:10:39.148Z,20.18
2022-10-01T20:13:24.359Z,20.04
2022-10-01T20:16:24.785Z,20.11
2022-10-01T20:19:09.464Z,20.00
2022-10-01T20:22:08.433Z,19.58
2022-10-01T20:24:54.917Z,19.54
2022-10-01T20:27:30.363Z,19.55
2022-10-01T20:30:14.608Z,19.08
2022-10-01T20:33:01.760Z,19.24
2022-10-01T20:35:53.052Z,19.33
2022-10-01T20:38:25.262Z,19.34
2022-10-01T20:41:01.696Z,19.33
2022-10-01T20:43:36.546Z,19.49
2022-10-01T20:46:11.749Z,19.43
2022-10-01T20:48:44.559Z,19.12
2022-10-01T20:51:25.406Z,19.13
2022-10-01T20:53:59.170Z,19.04
2022-10-01T20:56:38.430Z,18.84
2022-10-01T20:59:18.236Z,18.82
2022-10-01T21:02:02.357Z,19.18
2022-10-01T21:04:34.290Z,19.42
2022-10-01T21:07:26.114Z,19.61
2022-10-01T21:09:58.980Z,19.68
2022-10-01T21:12:36.604Z,19.73
2022-10-01T21:15:05.140Z,19.66
2022-10-01T21:18:06.891Z,19.62
2022-10-01T21:20:36.754Z,19.71
2022-10-01T21:23:31.484Z,19.78
2022-10-01T21:26:24.722Z,19.76
2022-10-01T21:29:19.562Z,19.59
2022-10-01T21:32:04.712Z,19.58
2022-10-01T21:34:46.408Z,19.53
2022-10-01T21:38:01.404Z,19.69
2022-10-01T21:40:54.100Z,19.76
2022-10-01T21:43:44.751Z,19.74
2022-10-01T21:46:33.360Z,19.70
2022-10-01T21:49:18.566Z,19.70
2022-10-01T21:51:58.627Z,19.28
2022-10-01T21:54:49.536Z,19.11
2022-10-01T21:57:22.460Z,18.15
2022-10-01T22:00:15.450Z,17.79
2022-10-01T22:03:09.227Z,17.98
2022-10-01T22:05:40.802Z,18.10
2022-10-01T22:08:34.111Z,18.39
2022-10-01T22:11:07.452Z,18.49
2022-10-01T22:13:37.409Z,18.75
2022-10-01T22:16:10.969Z,18.89
2022-10-01T22:18:49.103Z,19.07
2022-10-01T22:21:48.341Z,19.35
2022-10-01T22:24:21.000Z,19.08
2022-10-01T22:26:54.635Z,19.22
2022-10-01T22:29:26.112Z,19.29
2022-10-01T22:31:58.276Z,19.40
2022-10-01T22:34:48.983Z,19.54
2022-10-01T22:37:24.758Z,19.46
2022-10-01T22:39:59.237Z,19.35
2022-10-01T22:42:32.586Z,19.29
2022-10-01T22:45:09.414Z,19.40
2022-10-01T22:47:51.624Z,19.30
2022-10-01T22:50:44.904Z,18.95
2022-10-01T22:53:30.057Z,19.28
2022-10-01T22:55:57.820Z,19.49
2022-10-01T22:58:39.467Z,19.63
2022-10-01T23:01:21.029Z,19.58
2022-10-01T23:04:06.730Z,19.54
2022-10-01T23:06:39.310Z,19.59
2022-10-01T23:09:29.105Z,19.55
2022-10-01T23:12:11.694Z,19.51
2022-10-01T23:14:53.547Z,19.29
2022-10-01T23:17:30.265Z,19.03
2022-10-01T23:20:30.132Z,18.99
2022-10-01T23:30:04.881Z,19.54
2022-10-01T23:32:54.619Z,19.53
2022-10-01T23:35:58.685Z,19.64
2022-10-01T23:38:33.344Z,19.67
2022-10-01T23:41:11.112Z,19.70
2022-10-01T23:43:54.851Z,19.65
2022-10-01T23:46:27.173Z,19.34
2022-10-01T23:49:05.278Z,19.24
2022-10-01T23:51:37.262Z,19.03
2022-10-01T23:54:07.090Z,19.15
2022-10-01T23:56:49.336Z,19.22
2022-10-01T23:59:42.324Z,19.03
